Furancungo Airport


Codes: FQFU/
Name: Furancungo Airport
City: Furancungo
Country: Mozambique
Elevation: 0 ft.

Photos at Furancungo Airport


   Photos courtesy of SpottingLog. You can add your own sightings and photos by signing up for a free trial today.



No photos found.

Weather at Furancungo Airport


Time (UTC)DescriptionTempratureWindCloud coverageVisibilityPressureHumidity
16-Jun-2024 09:00Broken Clouds18°C9 mph, SE76%10000m1021hPa61%
16-Jun-2024 12:00Light Rain18°C9 mph, SE77%10000m1020hPa59%
16-Jun-2024 15:00Overcast Clouds16°C7 mph, SE85%10000m1020hPa67%
16-Jun-2024 18:00Overcast Clouds14°C4 mph, SE94%10000m1021hPa77%
16-Jun-2024 21:00Scattered Clouds10°C4 mph, E37%10000m1022hPa87%
17-Jun-2024 00:00Few Clouds9°C4 mph, E19%10000m1022hPa92%
17-Jun-2024 03:00Clear Sky8°C2 mph, E0%10000m1023hPa94%
17-Jun-2024 06:00Clear Sky14°C7 mph, SE0%10000m1023hPa65%
17-Jun-2024 09:00Clear Sky20°C9 mph, SE0%10000m1022hPa37%
17-Jun-2024 12:00Clear Sky22°C7 mph, SE1%10000m1018hPa30%
17-Jun-2024 15:00Clear Sky18°C7 mph, SE5%10000m1019hPa40%
17-Jun-2024 18:00Clear Sky11°C4 mph, E6%10000m1022hPa63%
17-Jun-2024 21:00Few Clouds10°C2 mph, E11%10000m1022hPa72%
18-Jun-2024 00:00Few Clouds9°C2 mph, NE14%10000m1021hPa79%
18-Jun-2024 03:00Scattered Clouds8°C2 mph, NE26%10000m1021hPa83%
18-Jun-2024 06:00Few Clouds16°C2 mph, NE16%10000m1021hPa51%
18-Jun-2024 09:00Clear Sky23°C2 mph, SW5%10000m1019hPa31%
18-Jun-2024 12:00Clear Sky25°C7 mph, SW4%10000m1016hPa26%
18-Jun-2024 15:00Clear Sky20°C7 mph, S6%10000m1017hPa37%
18-Jun-2024 18:00Clear Sky13°C2 mph, E4%10000m1020hPa59%
18-Jun-2024 21:00Clear Sky12°C2 mph, NE0%10000m1020hPa69%
19-Jun-2024 00:00Clear Sky11°C2 mph, NE0%10000m1019hPa74%
19-Jun-2024 03:00Clear Sky11°C2 mph, NE0%10000m1019hPa73%
19-Jun-2024 06:00Clear Sky18°C2 mph, NE0%10000m1020hPa44%
19-Jun-2024 09:00Clear Sky26°C2 mph, SE0%10000m1018hPa26%
19-Jun-2024 12:00Clear Sky27°C4 mph, S0%10000m1014hPa22%
19-Jun-2024 15:00Clear Sky22°C7 mph, S3%10000m1015hPa33%
19-Jun-2024 18:00Clear Sky15°C2 mph, SE2%10000m1019hPa52%
19-Jun-2024 21:00Clear Sky14°C2 mph, E2%10000m1020hPa59%
20-Jun-2024 00:00Clear Sky12°C4 mph, NE1%10000m1019hPa66%
20-Jun-2024 03:00Clear Sky12°C4 mph, NE1%10000m1020hPa68%
20-Jun-2024 06:00Clear Sky19°C2 mph, E2%10000m1021hPa46%
20-Jun-2024 09:00Few Clouds25°C4 mph, SE14%10000m1019hPa34%
20-Jun-2024 12:00Scattered Clouds27°C7 mph, S28%10000m1016hPa28%
20-Jun-2024 15:00Broken Clouds22°C7 mph, SE81%10000m1017hPa44%
20-Jun-2024 18:00Broken Clouds18°C7 mph, SE80%10000m1020hPa57%
20-Jun-2024 21:00Overcast Clouds17°C7 mph, SE99%10000m1021hPa52%
21-Jun-2024 00:00Broken Clouds12°C4 mph, E68%10000m1021hPa70%
21-Jun-2024 03:00Clear Sky11°C2 mph, E0%10000m1022hPa79%
21-Jun-2024 06:00Clear Sky16°C4 mph, SE0%10000m1024hPa57%